createdAt,value
2019-05-25T00:04:11.236Z,1999.90
2019-05-25T00:09:15.298Z,1999.90
2019-05-25T00:14:19.008Z,1999.90
2019-05-25T00:19:22.750Z,1999.90
2019-05-25T00:24:26.478Z,1999.90
2019-05-25T00:29:30.197Z,1999.90
2019-05-25T00:34:33.915Z,1999.90
2019-05-25T00:39:37.618Z,1999.90
2019-05-25T00:44:41.335Z,1999.90
2019-05-25T00:49:45.030Z,1999.90
2019-05-25T00:54:48.821Z,1999.90
2019-05-25T00:59:52.654Z,1999.90
2019-05-25T01:04:56.853Z,1999.90
2019-05-25T01:10:00.609Z,1878.27
2019-05-25T01:15:05.758Z,1999.90
2019-05-25T01:20:10.561Z,1999.90
2019-05-25T01:25:14.585Z,1999.90
2019-05-25T01:30:19.156Z,1999.90
2019-05-25T01:35:22.978Z,1999.90
2019-05-25T01:40:26.843Z,1861.10
2019-05-25T01:45:30.650Z,1999.90
2019-05-25T01:50:34.357Z,1999.90
2019-05-25T01:55:38.070Z,1999.90
2019-05-25T02:00:41.761Z,1999.90
2019-05-25T02:05:45.461Z,1999.90
2019-05-25T02:10:49.163Z,1999.90
2019-05-25T02:15:52.873Z,1988.90
2019-05-25T02:20:56.587Z,1999.90
2019-05-25T02:26:00.315Z,1999.90
2019-05-25T02:31:04.100Z,1999.90
2019-05-25T02:36:07.822Z,1999.90
2019-05-25T02:41:11.639Z,1983.23
2019-05-25T02:46:15.356Z,1999.90
2019-05-25T02:51:19.363Z,1999.90
2019-05-25T02:56:23.133Z,1999.90
2019-05-25T03:01:26.936Z,1999.90
2019-05-25T03:06:30.974Z,1999.90
2019-05-25T03:11:35.462Z,1999.90
2019-05-25T03:16:39.239Z,1999.90
2019-05-25T03:21:42.943Z,1999.90
2019-05-25T03:26:46.653Z,1999.90
2019-05-25T03:31:51.133Z,1999.90
2019-05-25T03:36:55.221Z,1999.90
2019-05-25T03:41:59.327Z,1999.90
2019-05-25T03:47:03.060Z,1999.90
2019-05-25T03:52:06.790Z,1999.90
2019-05-25T03:57:10.507Z,1999.90
2019-05-25T04:02:14.206Z,1999.90
2019-05-25T04:07:18.121Z,1999.90
2019-05-25T04:12:22.067Z,1999.90
2019-05-25T04:17:25.807Z,1999.90
2019-05-25T04:22:29.780Z,1999.90
2019-05-25T04:27:33.477Z,1999.90
2019-05-25T04:32:37.291Z,1999.90
2019-05-25T04:37:41.027Z,1999.90
2019-05-25T04:42:44.762Z,1999.90
2019-05-25T04:47:48.647Z,1999.90
2019-05-25T04:52:52.381Z,1999.90
2019-05-25T04:57:56.159Z,1999.90
2019-05-25T05:02:59.930Z,1999.90
2019-05-25T05:08:03.666Z,1999.90
2019-05-25T05:13:07.395Z,1999.90
2019-05-25T05:18:11.197Z,1999.90
2019-05-25T05:23:14.995Z,1999.90
2019-05-25T05:28:19.347Z,1981.73
2019-05-25T05:33:23.351Z,1949.37
2019-05-25T05:38:28.482Z,1675.03
2019-05-25T05:43:33.123Z,1996.53
2019-05-25T05:48:38.911Z,1999.90
2019-05-25T05:53:44.737Z,1927.47
2019-05-25T05:58:48.476Z,1640.07
2019-05-25T06:03:52.257Z,1999.90
2019-05-25T06:08:55.997Z,1999.90
2019-05-25T06:13:59.747Z,1999.90
2019-05-25T06:19:03.626Z,1999.90
2019-05-25T06:24:07.497Z,1999.90
2019-05-25T06:29:11.302Z,1727.17
2019-05-25T06:34:15.074Z,1999.90
2019-05-25T06:39:18.897Z,1999.90
2019-05-25T06:44:22.782Z,1999.90
2019-05-25T06:49:26.843Z,1993.53
2019-05-25T06:54:30.559Z,1668.93
2019-05-25T06:59:34.272Z,1999.90
2019-05-25T07:04:38.066Z,1456.17
2019-05-25T07:09:41.787Z,1999.90
2019-05-25T07:14:45.839Z,1492.60
2019-05-25T07:19:49.571Z,1624.10
2019-05-25T07:24:53.319Z,1785.57
2019-05-25T07:29:57.034Z,1744.40
2019-05-25T07:35:00.357Z,1295.53
2019-05-25T07:40:04.898Z,1125.40
2019-05-25T07:45:09.269Z,1900.17
2019-05-25T07:50:13.661Z,1874.43
2019-05-25T07:55:17.370Z,940.57
2019-05-25T08:00:21.254Z,1005.10
2019-05-25T08:05:24.608Z,974.70
2019-05-25T08:10:28.672Z,1629.40
2019-05-25T08:15:32.357Z,1999.90
2019-05-25T08:20:36.555Z,1086.83
2019-05-25T08:25:40.292Z,1469.77
2019-05-25T08:30:44.093Z,1805.97
2019-05-25T08:35:47.951Z,1920.17
2019-05-25T08:40:51.775Z,1930.07
2019-05-25T08:45:55.603Z,946.80
2019-05-25T08:50:59.789Z,1167.93
2019-05-25T08:56:03.687Z,1036.53
2019-05-25T09:01:07.395Z,1029.07
2019-05-25T09:06:11.140Z,1056.23
2019-05-25T09:11:14.931Z,1105.73
2019-05-25T09:16:19.048Z,1073.83
2019-05-25T09:21:22.851Z,1095.10
2019-05-25T09:26:26.661Z,1034.20
2019-05-25T09:31:30.555Z,983.30
2019-05-25T09:36:34.723Z,937.33
2019-05-25T09:41:38.791Z,942.00
2019-05-25T09:46:42.587Z,972.33
2019-05-25T09:51:48.637Z,965.20
2019-05-25T09:56:52.315Z,1013.80
2019-05-25T10:01:56.240Z,897.53
2019-05-25T10:07:00.379Z,1281.40
2019-05-25T10:12:04.987Z,1498.37
2019-05-25T10:17:08.714Z,907.17
2019-05-25T10:22:12.446Z,951.53
2019-05-25T10:27:16.321Z,1039.20
2019-05-25T10:32:20.071Z,985.93
2019-05-25T10:37:23.381Z,1097.77
2019-05-25T10:42:27.551Z,867.10
2019-05-25T10:47:31.322Z,857.63
2019-05-25T10:52:35.260Z,1767.33
2019-05-25T10:57:39.101Z,855.23
2019-05-25T11:02:42.784Z,965.97
2019-05-25T11:07:46.641Z,1004.93
2019-05-25T11:12:50.548Z,1049.27
2019-05-25T11:17:54.458Z,1013.20
2019-05-25T11:22:58.287Z,1009.67
2019-05-25T11:28:02.239Z,820.73
2019-05-25T11:33:06.005Z,1108.40
2019-05-25T11:38:10.360Z,845.10
2019-05-25T11:43:14.231Z,863.00
2019-05-25T11:48:18.021Z,930.37
2019-05-25T11:53:21.790Z,999.53
2019-05-25T11:58:25.913Z,871.83
2019-05-25T12:03:29.704Z,868.13
2019-05-25T12:08:33.429Z,878.43
2019-05-25T12:13:37.171Z,864.37
2019-05-25T12:18:40.953Z,858.73
2019-05-25T12:23:44.698Z,1023.10
2019-05-25T12:28:48.441Z,1237.87
2019-05-25T12:33:51.754Z,845.93
2019-05-25T12:38:55.149Z,1070.53
2019-05-25T12:43:58.458Z,921.77
2019-05-25T12:49:02.180Z,930.90
2019-05-25T12:54:06.102Z,930.37
2019-05-25T12:59:09.829Z,1027.20
2019-05-25T13:04:13.626Z,868.17
2019-05-25T13:09:17.395Z,915.37
2019-05-25T13:14:21.193Z,1508.90
2019-05-25T13:19:24.922Z,925.33
2019-05-25T13:24:29.245Z,921.63
2019-05-25T13:29:33.303Z,889.80
2019-05-25T13:34:37.028Z,850.87
2019-05-25T13:39:40.731Z,903.33
2019-05-25T13:44:44.482Z,798.63
2019-05-25T13:49:48.211Z,857.77
2019-05-25T13:54:51.938Z,887.90
2019-05-25T13:59:56.147Z,890.77
2019-05-25T14:05:00.208Z,929.37
2019-05-25T14:10:04.309Z,948.40
2019-05-25T14:15:09.346Z,1116.53
2019-05-25T14:20:13.775Z,913.20
2019-05-25T14:25:17.555Z,927.77
2019-05-25T14:30:22.086Z,945.17
2019-05-25T14:35:26.200Z,844.00
2019-05-25T14:40:29.782Z,918.13
2019-05-25T14:45:33.716Z,926.03
2019-05-25T14:50:37.461Z,1131.57
2019-05-25T14:55:41.188Z,988.97
2019-05-25T15:00:44.956Z,900.87
2019-05-25T15:05:48.719Z,969.53
2019-05-25T15:10:52.439Z,863.77
2019-05-25T15:15:56.375Z,919.53
2019-05-25T15:21:00.665Z,896.40
2019-05-25T15:26:04.633Z,980.57
2019-05-25T15:31:13.527Z,853.73
2019-05-25T15:36:17.285Z,874.83
2019-05-25T15:41:21.109Z,937.60
2019-05-25T15:46:24.931Z,867.87
2019-05-25T15:51:28.727Z,947.57
2019-05-25T15:56:32.698Z,953.60
2019-05-25T16:01:36.612Z,860.17
2019-05-25T16:06:40.371Z,952.90
2019-05-25T16:11:44.115Z,974.63
2019-05-25T16:16:48.090Z,960.67
2019-05-25T16:21:51.996Z,990.80
2019-05-25T16:26:55.726Z,949.47
2019-05-25T16:31:59.513Z,935.67
2019-05-25T16:37:03.320Z,896.47
2019-05-25T16:42:07.211Z,930.20
2019-05-25T16:47:10.948Z,897.20
2019-05-25T16:52:14.678Z,881.73
2019-05-25T16:57:18.475Z,895.70
2019-05-25T17:02:22.437Z,854.97
2019-05-25T17:07:26.110Z,898.00
2019-05-25T17:12:29.839Z,976.13
2019-05-25T17:17:33.728Z,951.30
2019-05-25T17:22:37.470Z,855.23
2019-05-25T17:27:41.327Z,925.77
2019-05-25T17:32:45.048Z,995.80
2019-05-25T17:37:49.011Z,937.77
2019-05-25T17:42:52.733Z,986.37
2019-05-25T17:47:56.684Z,1025.87
2019-05-25T17:53:00.397Z,1036.13
2019-05-25T17:58:04.597Z,1381.60
2019-05-25T18:03:08.951Z,1051.57
2019-05-25T18:08:12.741Z,920.67
2019-05-25T18:13:16.553Z,882.93
2019-05-25T18:18:20.306Z,724.33
2019-05-25T18:23:24.056Z,782.73
2019-05-25T18:28:27.879Z,709.80
2019-05-25T18:33:31.611Z,552.37
2019-05-25T18:38:35.461Z,701.30
2019-05-25T18:43:39.186Z,931.07
2019-05-25T18:48:42.928Z,941.10
2019-05-25T18:53:46.700Z,1029.00
2019-05-25T18:58:50.453Z,1174.57
2019-05-25T19:03:54.260Z,1398.90
2019-05-25T19:08:58.067Z,1572.33
2019-05-25T19:14:02.228Z,1538.83
2019-05-25T19:19:08.756Z,1493.77
2019-05-25T19:24:13.847Z,1597.50
2019-05-25T19:29:17.648Z,1597.70
2019-05-25T19:34:21.475Z,1829.47
2019-05-25T19:39:25.375Z,1999.90
2019-05-25T19:44:30.060Z,1999.90
2019-05-25T19:49:34.090Z,1999.90
2019-05-25T19:54:37.889Z,1999.90
2019-05-25T19:59:41.751Z,1800.83
2019-05-25T20:04:45.554Z,1999.90
2019-05-25T20:09:49.747Z,1500.77
2019-05-25T20:14:53.597Z,1985.53
2019-05-25T20:19:57.339Z,1795.87
2019-05-25T20:25:01.149Z,1667.57
2019-05-25T20:30:05.384Z,1620.23
2019-05-25T20:35:09.279Z,1599.13
2019-05-25T20:40:13.433Z,1999.90
2019-05-25T20:45:18.758Z,1999.90
2019-05-25T20:50:22.499Z,1999.90
2019-05-25T20:55:26.685Z,1999.90
2019-05-25T21:00:30.438Z,1878.70
2019-05-25T21:05:48.875Z,1929.00
2019-05-25T21:10:39.924Z,1903.87
2019-05-25T21:15:43.870Z,1880.30
2019-05-25T21:20:47.673Z,1888.50
2019-05-25T21:25:51.383Z,1934.53
2019-05-25T21:30:55.110Z,1999.90
2019-05-25T21:36:08.422Z,1999.90
2019-05-25T21:41:04.479Z,1999.90
2019-05-25T21:46:08.284Z,1999.90
2019-05-25T21:51:12.078Z,1999.90
2019-05-25T21:56:15.806Z,1999.90
2019-05-25T22:01:19.707Z,1999.90
2019-05-25T22:06:24.859Z,1999.90
2019-05-25T22:11:28.821Z,1999.90
2019-05-25T22:16:32.781Z,1999.90
2019-05-25T22:21:36.610Z,1999.90
2019-05-25T22:26:40.726Z,1999.90
2019-05-25T22:31:44.490Z,1999.90
2019-05-25T22:36:48.237Z,1999.90
2019-05-25T22:41:52.001Z,1999.90
2019-05-25T22:46:55.730Z,1999.90
2019-05-25T22:51:59.467Z,1999.90
2019-05-25T22:57:03.389Z,1999.90
2019-05-25T23:02:07.131Z,1999.90
2019-05-25T23:07:10.875Z,1999.90
2019-05-25T23:12:14.587Z,1999.90
2019-05-25T23:17:18.650Z,1999.90
2019-05-25T23:22:22.983Z,1999.90
2019-05-25T23:27:26.726Z,1999.90
2019-05-25T23:32:30.444Z,1999.90
2019-05-25T23:37:34.556Z,1854.60
2019-05-25T23:42:38.799Z,1971.40
2019-05-25T23:47:42.770Z,1550.83
2019-05-25T23:52:46.579Z,1911.67
2019-05-25T23:57:50.380Z,1848.13
